createdAt,value
2022-11-03T00:02:21.474Z,76.77
2022-11-03T00:05:36.457Z,76.69
2022-11-03T00:08:42.017Z,76.09
2022-11-03T00:11:58.366Z,76.21
2022-11-03T00:15:00.105Z,76.01
2022-11-03T00:18:14.381Z,76.06
2022-11-03T00:21:16.177Z,75.85
2022-11-03T00:24:31.372Z,76.24
2022-11-03T00:27:46.370Z,76.24
2022-11-03T00:31:01.387Z,76.71
2022-11-03T00:34:11.380Z,77.10
2022-11-03T00:37:26.425Z,76.98
2022-11-03T00:40:28.182Z,77.65
2022-11-03T00:43:43.457Z,78.07
2022-11-03T00:46:58.692Z,78.31
2022-11-03T00:50:07.434Z,79.00
2022-11-03T00:53:15.990Z,79.50
2022-11-03T00:56:26.418Z,79.12
2022-11-03T00:59:41.395Z,80.04
2022-11-03T01:02:43.157Z,79.47
2022-11-03T01:05:57.444Z,79.71
2022-11-03T01:09:05.417Z,80.69
2022-11-03T01:12:17.280Z,80.84
2022-11-03T01:15:25.430Z,81.37
2022-11-03T01:18:40.430Z,81.61
2022-11-03T01:21:55.437Z,81.35
2022-11-03T01:25:04.160Z,81.50
2022-11-03T01:28:12.446Z,81.30
2022-11-03T01:31:30.463Z,80.97
2022-11-03T01:34:32.350Z,80.92
2022-11-03T01:37:47.499Z,80.90
2022-11-03T01:40:49.225Z,81.00
2022-11-03T01:44:31.481Z,81.32
2022-11-03T01:47:47.181Z,81.48
2022-11-03T01:51:02.429Z,81.26
2022-11-03T01:54:08.798Z,80.93
2022-11-03T01:57:31.447Z,79.97
2022-11-03T02:00:34.940Z,79.46
2022-11-03T02:03:57.447Z,77.63
2022-11-03T02:07:22.865Z,76.77
2022-11-03T02:10:31.489Z,76.24
2022-11-03T02:13:46.459Z,75.98
2022-11-03T02:17:05.484Z,75.64
2022-11-03T02:20:27.524Z,75.26
2022-11-03T02:23:51.457Z,75.40
2022-11-03T02:27:00.306Z,74.76
2022-11-03T02:30:08.436Z,75.26
2022-11-03T02:33:31.171Z,75.37
2022-11-03T02:36:47.466Z,75.72
2022-11-03T02:40:10.453Z,75.50
2022-11-03T02:43:15.088Z,75.40
2022-11-03T02:46:32.483Z,75.78
2022-11-03T02:49:46.846Z,75.88
2022-11-03T02:53:01.497Z,76.66
2022-11-03T02:56:11.034Z,76.31
2022-11-03T02:59:33.479Z,75.79
2022-11-03T03:02:44.837Z,76.41
2022-11-03T03:06:06.457Z,76.08
2022-11-03T03:09:18.516Z,75.65
2022-11-03T03:12:34.553Z,76.49
2022-11-03T03:15:57.486Z,77.22
2022-11-03T03:19:13.347Z,77.80
2022-11-03T03:22:38.506Z,78.61
2022-11-03T03:25:58.658Z,79.13
2022-11-03T03:29:15.477Z,79.02
2022-11-03T03:32:26.866Z,79.54
2022-11-03T03:35:37.499Z,79.94
2022-11-03T03:39:00.517Z,80.21
2022-11-03T03:42:03.827Z,80.99
2022-11-03T03:45:19.567Z,81.17
2022-11-03T03:48:27.921Z,81.07
2022-11-03T03:51:44.520Z,81.42
2022-11-03T03:54:46.254Z,81.08
2022-11-03T03:58:00.674Z,81.43
2022-11-03T04:01:18.593Z,81.93
2022-11-03T04:04:20.758Z,82.24
2022-11-03T04:07:40.741Z,82.14
2022-11-03T04:10:52.497Z,81.83
2022-11-03T04:14:01.053Z,80.99
2022-11-03T04:17:09.572Z,80.50
2022-11-03T04:20:18.393Z,80.00
2022-11-03T04:23:33.523Z,82.46
2022-11-03T04:26:42.122Z,81.68
2022-11-03T04:29:50.524Z,81.51
2022-11-03T04:33:05.536Z,81.89
2022-11-03T04:36:23.060Z,83.68
2022-11-03T04:39:37.601Z,83.45
2022-11-03T04:42:46.492Z,82.24
2022-11-03T04:46:01.661Z,81.65
2022-11-03T04:49:22.202Z,81.87
2022-11-03T04:52:30.529Z,81.38
2022-11-03T04:55:47.524Z,81.46
2022-11-03T04:58:49.331Z,81.19
2022-11-03T05:02:05.681Z,82.06
2022-11-03T05:05:19.675Z,81.37
2022-11-03T05:08:34.586Z,81.46
2022-11-03T05:11:42.311Z,81.87
2022-11-03T05:14:58.812Z,84.41
2022-11-03T05:18:04.087Z,82.37
2022-11-03T05:21:24.565Z,81.59
2022-11-03T05:24:33.573Z,81.51
2022-11-03T05:27:42.081Z,81.30
2022-11-03T05:30:50.552Z,81.50
2022-11-03T05:34:10.541Z,81.98
2022-11-03T05:37:33.559Z,81.97
2022-11-03T05:40:43.059Z,82.45
2022-11-03T05:43:51.553Z,82.54
2022-11-03T05:47:08.554Z,82.54
2022-11-03T05:50:27.626Z,82.62
2022-11-03T05:53:39.502Z,83.08
2022-11-03T05:56:47.561Z,82.93
2022-11-03T06:00:02.534Z,82.75
2022-11-03T06:03:06.377Z,82.68
2022-11-03T06:06:32.388Z,82.68
2022-11-03T06:09:34.599Z,82.68
2022-11-03T06:12:49.535Z,82.90
2022-11-03T06:16:03.531Z,82.67
2022-11-03T06:19:34.575Z,82.32
2022-11-03T06:22:43.305Z,82.01
2022-11-03T06:26:00.549Z,81.62
2022-11-03T06:29:22.577Z,80.92
2022-11-03T06:32:24.838Z,79.64
2022-11-03T06:35:41.550Z,79.05
2022-11-03T06:38:57.626Z,78.57
2022-11-03T06:42:14.753Z,78.83
2022-11-03T06:45:28.603Z,78.80
2022-11-03T06:48:50.569Z,78.96
2022-11-03T06:51:52.336Z,79.00
2022-11-03T06:55:22.734Z,77.60
2022-11-03T06:58:30.734Z,77.62
2022-11-03T07:01:45.715Z,78.08
2022-11-03T07:08:41.617Z,78.47
2022-11-03T07:11:54.932Z,78.48
2022-11-03T07:18:32.613Z,76.91
2022-11-03T07:21:46.380Z,75.95
2022-11-03T07:24:58.650Z,76.88
2022-11-03T07:28:16.616Z,75.60
2022-11-03T07:31:28.679Z,75.65
2022-11-03T07:34:37.314Z,77.74
2022-11-03T07:37:53.623Z,77.50
2022-11-03T07:41:10.627Z,77.96
2022-11-03T07:44:18.261Z,79.20
2022-11-03T07:47:34.620Z,79.36
2022-11-03T07:50:59.642Z,80.33
2022-11-03T07:54:22.649Z,81.17
2022-11-03T07:57:40.846Z,81.74
2022-11-03T08:00:49.667Z,82.12
2022-11-03T08:04:10.631Z,83.40
2022-11-03T08:07:18.606Z,84.10
2022-11-03T08:10:33.630Z,84.12
2022-11-03T08:13:42.154Z,84.17
2022-11-03T08:16:56.630Z,84.44
2022-11-03T08:20:04.657Z,84.20
2022-11-03T08:23:25.776Z,85.30
2022-11-03T08:26:35.718Z,85.06
2022-11-03T08:29:44.627Z,85.17
2022-11-03T08:32:52.676Z,86.06
2022-11-03T08:36:02.598Z,85.90
2022-11-03T08:39:17.642Z,86.73
2022-11-03T08:42:19.461Z,87.69
2022-11-03T08:45:35.691Z,88.11
2022-11-03T08:48:50.621Z,87.66
2022-11-03T08:51:59.246Z,87.93
2022-11-03T08:55:07.650Z,88.83
2022-11-03T08:58:16.525Z,89.32
2022-11-03T09:01:25.764Z,89.45
2022-11-03T09:04:34.294Z,89.65
2022-11-03T09:11:11.335Z,89.71
2022-11-03T09:14:19.686Z,89.09
2022-11-03T09:17:34.714Z,85.76
2022-11-03T09:20:49.652Z,83.54
2022-11-03T09:23:57.759Z,83.47
2022-11-03T09:27:12.696Z,86.52
2022-11-03T09:30:20.747Z,87.82
2022-11-03T09:33:35.725Z,89.24
2022-11-03T09:36:43.642Z,90.67
2022-11-03T09:39:52.302Z,90.65
2022-11-03T09:43:00.671Z,90.81
2022-11-03T09:46:10.063Z,89.51
2022-11-03T09:49:21.687Z,88.71
2022-11-03T09:52:38.770Z,89.38
2022-11-03T09:55:40.574Z,89.59
2022-11-03T09:58:55.750Z,89.21
2022-11-03T10:02:03.852Z,88.95
2022-11-03T10:05:22.855Z,89.33
2022-11-03T10:08:34.774Z,89.32
2022-11-03T10:11:52.766Z,89.28
2022-11-03T10:15:01.457Z,89.18
2022-11-03T10:18:10.783Z,88.77
2022-11-03T10:21:31.758Z,88.50
2022-11-03T10:24:39.738Z,88.49
2022-11-03T10:27:48.453Z,88.80
2022-11-03T10:31:16.009Z,88.99
2022-11-03T10:34:34.893Z,88.96
2022-11-03T10:37:43.852Z,88.47
2022-11-03T10:40:52.303Z,88.40
2022-11-03T10:44:24.692Z,88.85
2022-11-03T10:47:46.763Z,88.50
2022-11-03T10:50:55.459Z,88.57
2022-11-03T10:54:03.736Z,89.19
2022-11-03T10:57:12.667Z,89.16
2022-11-03T11:00:23.764Z,89.78
2022-11-03T11:03:39.771Z,89.69
2022-11-03T11:06:49.298Z,89.74
2022-11-03T11:09:57.737Z,89.84
2022-11-03T11:13:26.817Z,90.46
2022-11-03T11:16:54.756Z,88.38
2022-11-03T11:20:33.307Z,89.52
2022-11-03T11:23:53.030Z,90.24
2022-11-03T11:27:07.758Z,90.73
2022-11-03T11:30:46.842Z,91.05
2022-11-03T11:34:31.759Z,92.06
2022-11-03T11:37:42.742Z,92.48
2022-11-03T11:40:51.379Z,92.65
2022-11-03T11:43:59.733Z,92.37
2022-11-03T11:47:34.807Z,92.64
2022-11-03T11:50:43.867Z,91.94
2022-11-03T11:54:17.124Z,91.46
2022-11-03T11:57:22.865Z,91.35
2022-11-03T12:00:44.073Z,90.93
2022-11-03T12:03:54.891Z,90.51
2022-11-03T12:07:19.848Z,89.77
2022-11-03T12:10:30.761Z,90.11
2022-11-03T12:13:57.783Z,90.18
2022-11-03T12:17:33.031Z,90.33
2022-11-03T12:20:54.793Z,90.23
2022-11-03T12:23:57.073Z,89.65
2022-11-03T12:27:26.745Z,90.08
2022-11-03T12:30:39.817Z,89.67
2022-11-03T12:33:54.874Z,90.00
2022-11-03T12:37:04.752Z,90.81
2022-11-03T12:40:20.840Z,91.27
2022-11-03T12:43:29.469Z,91.46
2022-11-03T12:46:37.830Z,91.58
2022-11-03T12:49:59.794Z,91.01
2022-11-03T12:53:08.239Z,90.09
2022-11-03T12:56:18.360Z,89.29
2022-11-03T12:59:32.789Z,89.58
2022-11-03T13:02:41.559Z,89.80
2022-11-03T13:05:49.847Z,89.89
2022-11-03T13:08:58.392Z,90.17
2022-11-03T13:12:06.780Z,90.06
2022-11-03T13:15:22.840Z,90.13
2022-11-03T13:18:34.787Z,90.64
2022-11-03T13:21:49.843Z,90.79
2022-11-03T13:24:55.835Z,90.47
2022-11-03T13:28:11.837Z,90.16
2022-11-03T13:31:13.670Z,90.87
2022-11-03T13:34:31.766Z,91.53
2022-11-03T13:37:33.538Z,91.03
2022-11-03T13:40:57.089Z,91.13
2022-11-03T13:43:59.759Z,91.53
2022-11-03T13:47:15.060Z,91.74
2022-11-03T13:50:24.281Z,91.75
2022-11-03T14:00:36.758Z,91.34
2022-11-03T14:07:19.853Z,91.35
2022-11-03T14:10:28.851Z,91.30
2022-11-03T14:13:44.094Z,91.05
2022-11-03T14:16:46.026Z,91.15
2022-11-03T14:20:04.572Z,89.94
2022-11-03T14:23:07.272Z,89.59
2022-11-03T14:26:38.656Z,89.45
2022-11-03T14:29:44.541Z,90.28
2022-11-03T14:32:59.790Z,90.11
2022-11-03T14:36:08.733Z,89.91
2022-11-03T14:39:17.854Z,90.15
2022-11-03T14:42:26.796Z,90.10
2022-11-03T14:45:42.956Z,90.65
2022-11-03T14:48:59.125Z,90.43
2022-11-03T14:52:14.873Z,90.74
2022-11-03T14:55:24.197Z,91.53
2022-11-03T14:58:38.923Z,91.58
2022-11-03T15:01:49.019Z,94.37
2022-11-03T15:05:03.890Z,95.08
2022-11-03T15:08:06.071Z,95.34
2022-11-03T15:11:20.885Z,94.49
2022-11-03T15:14:28.877Z,94.98
2022-11-03T15:17:43.924Z,95.58
2022-11-03T15:20:45.988Z,96.53
2022-11-03T15:27:22.767Z,96.57
2022-11-03T15:30:38.864Z,96.96
2022-11-03T15:33:46.869Z,97.38
2022-11-03T15:36:55.483Z,97.44
2022-11-03T15:40:03.999Z,97.51
2022-11-03T15:43:12.510Z,96.67
2022-11-03T15:46:22.897Z,97.16
2022-11-03T15:49:38.218Z,97.40
2022-11-03T15:52:46.882Z,97.10
2022-11-03T15:56:01.918Z,98.91
2022-11-03T15:59:09.929Z,98.43
2022-11-03T16:02:40.992Z,97.70
2022-11-03T16:05:50.656Z,98.65
2022-11-03T16:08:58.983Z,99.57
2022-11-03T16:12:07.996Z,99.30
2022-11-03T16:15:22.912Z,99.62
2022-11-03T16:18:25.249Z,100.00
2022-11-03T16:21:39.992Z,100.00
2022-11-03T16:24:42.434Z,100.00
2022-11-03T16:27:57.999Z,100.00
2022-11-03T16:31:06.925Z,100.00
2022-11-03T16:34:22.982Z,100.00
2022-11-03T16:37:32.104Z,100.00
2022-11-03T16:40:42.370Z,100.00
2022-11-03T16:43:50.844Z,100.00
2022-11-03T16:47:13.901Z,100.00
2022-11-03T16:50:28.927Z,100.00
2022-11-03T16:53:37.597Z,99.72
2022-11-03T16:56:49.414Z,99.57
2022-11-03T17:00:00.766Z,99.21
2022-11-03T17:03:09.264Z,98.65
2022-11-03T17:06:24.929Z,98.27
2022-11-03T17:09:33.909Z,98.04
2022-11-03T17:12:48.937Z,97.60
2022-11-03T17:15:52.903Z,96.73
2022-11-03T17:19:07.910Z,96.40
2022-11-03T17:22:10.059Z,96.04
2022-11-03T17:25:24.875Z,95.93
2022-11-03T17:28:32.908Z,95.81
2022-11-03T17:31:47.894Z,95.46
2022-11-03T17:34:53.706Z,95.53
2022-11-03T17:38:12.989Z,95.68
2022-11-03T17:41:21.945Z,95.61
2022-11-03T17:44:31.753Z,95.51
2022-11-03T17:47:39.929Z,95.50
2022-11-03T17:50:56.399Z,95.52
2022-11-03T17:54:12.889Z,95.50
2022-11-03T17:57:23.115Z,95.30
2022-11-03T18:00:32.985Z,94.96
2022-11-03T18:03:50.962Z,94.85
2022-11-03T18:06:53.377Z,94.75
2022-11-03T18:10:07.921Z,94.57
2022-11-03T18:13:23.937Z,94.40
2022-11-03T18:16:38.954Z,94.32
2022-11-03T18:19:47.922Z,94.08
2022-11-03T18:23:17.953Z,93.99
2022-11-03T18:26:28.980Z,93.94
2022-11-03T18:29:37.786Z,93.91
2022-11-03T18:32:53.951Z,93.91
2022-11-03T18:36:03.979Z,93.87
2022-11-03T18:39:27.956Z,93.94
2022-11-03T18:42:37.146Z,93.65
2022-11-03T18:45:45.957Z,93.62
2022-11-03T18:49:01.995Z,93.55
2022-11-03T18:52:14.087Z,93.35
2022-11-03T18:55:29.062Z,93.02
2022-11-03T18:58:33.517Z,92.96
2022-11-03T19:01:48.083Z,92.84
2022-11-03T19:05:02.989Z,92.75
2022-11-03T19:08:05.798Z,92.93
2022-11-03T19:11:27.691Z,92.89
2022-11-03T19:14:33.007Z,92.83
2022-11-03T19:17:47.970Z,92.64
2022-11-03T19:20:56.978Z,92.40
2022-11-03T19:24:06.117Z,92.02
2022-11-03T19:27:27.004Z,92.34
2022-11-03T19:30:29.347Z,92.42
2022-11-03T19:33:45.943Z,92.13
2022-11-03T19:36:50.935Z,91.82
2022-11-03T19:40:06.954Z,91.55
2022-11-03T19:43:16.039Z,91.33
2022-11-03T19:46:32.016Z,91.67
2022-11-03T19:49:53.947Z,91.18
2022-11-03T19:53:12.968Z,90.87
2022-11-03T19:56:27.961Z,90.58
2022-11-03T19:59:30.041Z,90.44
2022-11-03T20:02:45.174Z,90.57
2022-11-03T20:05:50.488Z,90.59
2022-11-03T20:09:04.979Z,90.87
2022-11-03T20:12:13.938Z,90.93
2022-11-03T20:15:22.906Z,91.21
2022-11-03T20:18:31.967Z,91.11
2022-11-03T20:21:41.401Z,91.34
2022-11-03T20:24:53.974Z,91.37
2022-11-03T20:28:22.067Z,91.17
2022-11-03T20:31:37.005Z,91.24
2022-11-03T20:34:46.094Z,91.01
2022-11-03T20:37:57.204Z,90.83
2022-11-03T20:41:12.854Z,91.16
2022-11-03T20:44:29.124Z,90.79
2022-11-03T20:47:48.181Z,90.89
2022-11-03T20:50:57.266Z,90.50
2022-11-03T20:54:22.016Z,90.12
2022-11-03T20:57:30.846Z,90.11
2022-11-03T21:00:46.137Z,90.36
2022-11-03T21:04:01.017Z,90.53
2022-11-03T21:07:10.053Z,90.11
2022-11-03T21:10:26.009Z,89.48
2022-11-03T21:13:35.994Z,89.27
2022-11-03T21:16:51.023Z,89.50
2022-11-03T21:19:53.037Z,89.25
2022-11-03T21:23:08.300Z,89.04
2022-11-03T21:26:16.679Z,88.99
2022-11-03T21:29:53.495Z,89.09
2022-11-03T21:32:53.626Z,88.94
2022-11-03T21:36:02.032Z,88.89
2022-11-03T21:39:17.057Z,88.92
2022-11-03T21:42:25.562Z,89.35
2022-11-03T21:45:34.027Z,89.36
2022-11-03T21:48:49.013Z,89.28
2022-11-03T21:52:11.022Z,89.77
2022-11-03T21:55:26.052Z,89.79
2022-11-03T21:58:27.833Z,89.55
2022-11-03T22:01:43.276Z,89.50
2022-11-03T22:04:58.061Z,89.77
2022-11-03T22:07:59.768Z,89.53
2022-11-03T22:11:15.069Z,89.78
2022-11-03T22:14:23.034Z,89.85
2022-11-03T22:17:31.617Z,89.71
2022-11-03T22:20:40.070Z,90.01
2022-11-03T22:23:48.589Z,90.12
2022-11-03T22:26:57.047Z,90.51
2022-11-03T22:30:06.603Z,90.29
2022-11-03T22:33:15.017Z,90.43
2022-11-03T22:36:23.708Z,90.57
2022-11-03T22:39:32.057Z,90.51
2022-11-03T22:42:41.010Z,90.58
2022-11-03T22:45:49.057Z,90.17
2022-11-03T22:49:04.046Z,90.38
2022-11-03T22:52:12.065Z,90.30
2022-11-03T22:55:20.567Z,90.33
2022-11-03T22:58:30.573Z,90.40
2022-11-03T23:01:39.876Z,90.79
2022-11-03T23:04:48.052Z,90.88
2022-11-03T23:07:56.650Z,91.06
2022-11-03T23:11:18.145Z,91.24
2022-11-03T23:14:33.054Z,91.08
2022-11-03T23:17:41.053Z,90.80
2022-11-03T23:20:49.615Z,90.91
2022-11-03T23:23:58.110Z,90.82
2022-11-03T23:27:07.453Z,91.12
2022-11-03T23:30:16.052Z,91.46
2022-11-03T23:33:31.097Z,91.46
2022-11-03T23:36:33.119Z,91.35
2022-11-03T23:39:48.091Z,91.57
2022-11-03T23:42:49.829Z,91.62
2022-11-03T23:46:04.104Z,91.95
2022-11-03T23:49:06.382Z,91.98
2022-11-03T23:52:28.115Z,92.06
2022-11-03T23:55:36.090Z,92.26
2022-11-03T23:58:48.571Z,92.78
